sensor_id;sensor_type;location;lat;lon;timestamp;temperature;humidity
39655;DHT22;25336;59.944;11.010;2023-04-21T00:00:43;8.50;47.90
39655;DHT22;25336;59.944;11.010;2023-04-21T00:03:09;8.50;47.90
39655;DHT22;25336;59.944;11.010;2023-04-21T00:05:34;8.50;48.00
39655;DHT22;25336;59.944;11.010;2023-04-21T00:08:00;8.40;48.20
39655;DHT22;25336;59.944;11.010;2023-04-21T00:10:26;8.40;48.20
39655;DHT22;25336;59.944;11.010;2023-04-21T00:12:51;9.20;48.70
39655;DHT22;25336;59.944;11.010;2023-04-21T00:15:17;8.40;48.30
39655;DHT22;25336;59.944;11.010;2023-04-21T00:17:43;8.30;48.40
39655;DHT22;25336;59.944;11.010;2023-04-21T00:20:09;8.30;48.50
39655;DHT22;25336;59.944;11.010;2023-04-21T00:22:35;8.30;48.70
39655;DHT22;25336;59.944;11.010;2023-04-21T00:25:01;8.20;48.70
39655;DHT22;25336;59.944;11.010;2023-04-21T00:27:26;8.20;48.70
39655;DHT22;25336;59.944;11.010;2023-04-21T00:29:52;8.20;48.80
39655;DHT22;25336;59.944;11.010;2023-04-21T00:32:17;8.10;49.00
39655;DHT22;25336;59.944;11.010;2023-04-21T00:34:43;8.10;49.00
39655;DHT22;25336;59.944;11.010;2023-04-21T00:37:08;8.00;49.00
39655;DHT22;25336;59.944;11.010;2023-04-21T00:39:34;8.10;49.20
39655;DHT22;25336;59.944;11.010;2023-04-21T00:41:59;8.00;49.20
39655;DHT22;25336;59.944;11.010;2023-04-21T00:44:25;7.90;49.30
39655;DHT22;25336;59.944;11.010;2023-04-21T00:46:51;7.90;49.50
39655;DHT22;25336;59.944;11.010;2023-04-21T00:49:17;7.90;49.50
39655;DHT22;25336;59.944;11.010;2023-04-21T00:51:42;7.80;49.60
39655;DHT22;25336;59.944;11.010;2023-04-21T00:54:08;7.80;50.00
39655;DHT22;25336;59.944;11.010;2023-04-21T00:56:36;7.80;49.90
39655;DHT22;25336;59.944;11.010;2023-04-21T00:59:02;7.70;49.80
39655;DHT22;25336;59.944;11.010;2023-04-21T01:01:28;7.70;49.90
39655;DHT22;25336;59.944;11.010;2023-04-21T01:03:57;7.70;50.00
39655;DHT22;25336;59.944;11.010;2023-04-21T01:06:24;8.70;50.70
39655;DHT22;25336;59.944;11.010;2023-04-21T01:08:51;7.60;50.00
39655;DHT22;25336;59.944;11.010;2023-04-21T01:11:18;7.60;50.20
39655;DHT22;25336;59.944;11.010;2023-04-21T01:13:43;7.60;50.20
39655;DHT22;25336;59.944;11.010;2023-04-21T01:16:17;7.50;50.30
39655;DHT22;25336;59.944;11.010;2023-04-21T01:18:44;7.50;50.50
39655;DHT22;25336;59.944;11.010;2023-04-21T01:21:11;7.00;50.20
39655;DHT22;25336;59.944;11.010;2023-04-21T01:23:40;7.40;50.50
39655;DHT22;25336;59.944;11.010;2023-04-21T01:26:08;7.40;50.50
39655;DHT22;25336;59.944;11.010;2023-04-21T01:28:34;7.40;50.50
39655;DHT22;25336;59.944;11.010;2023-04-21T01:31:00;7.30;50.60
39655;DHT22;25336;59.944;11.010;2023-04-21T01:33:26;7.30;50.70
39655;DHT22;25336;59.944;11.010;2023-04-21T01:35:52;7.30;50.80
39655;DHT22;25336;59.944;11.010;2023-04-21T01:38:18;7.20;50.90
39655;DHT22;25336;59.944;11.010;2023-04-21T01:40:48;7.40;51.10
39655;DHT22;25336;59.944;11.010;2023-04-21T01:43:16;7.20;51.10
39655;DHT22;25336;59.944;11.010;2023-04-21T01:45:42;7.20;51.40
39655;DHT22;25336;59.944;11.010;2023-04-21T01:48:08;7.10;51.20
39655;DHT22;25336;59.944;11.010;2023-04-21T01:50:34;7.20;51.30
39655;DHT22;25336;59.944;11.010;2023-04-21T01:53:00;7.00;51.40
39655;DHT22;25336;59.944;11.010;2023-04-21T01:55:25;7.00;51.40
39655;DHT22;25336;59.944;11.010;2023-04-21T01:57:51;7.30;51.60
39655;DHT22;25336;59.944;11.010;2023-04-21T02:00:17;7.00;51.60
39655;DHT22;25336;59.944;11.010;2023-04-21T02:02:42;7.00;51.60
39655;DHT22;25336;59.944;11.010;2023-04-21T02:05:08;7.00;51.70
39655;DHT22;25336;59.944;11.010;2023-04-21T02:07:34;6.90;51.70
39655;DHT22;25336;59.944;11.010;2023-04-21T02:09:59;6.90;51.70
39655;DHT22;25336;59.944;11.010;2023-04-21T02:12:25;6.90;51.80
39655;DHT22;25336;59.944;11.010;2023-04-21T02:14:51;6.90;52.00
39655;DHT22;25336;59.944;11.010;2023-04-21T02:17:16;6.90;51.90
39655;DHT22;25336;59.944;11.010;2023-04-21T02:19:42;6.80;51.90
39655;DHT22;25336;59.944;11.010;2023-04-21T02:22:07;6.80;51.90
39655;DHT22;25336;59.944;11.010;2023-04-21T02:24:35;6.80;52.00
39655;DHT22;25336;59.944;11.010;2023-04-21T02:27:01;6.80;51.90
39655;DHT22;25336;59.944;11.010;2023-04-21T02:29:27;6.90;52.00
39655;DHT22;25336;59.944;11.010;2023-04-21T02:31:53;7.70;52.50
39655;DHT22;25336;59.944;11.010;2023-04-21T02:34:18;6.80;52.00
39655;DHT22;25336;59.944;11.010;2023-04-21T02:36:45;6.80;52.10
39655;DHT22;25336;59.944;11.010;2023-04-21T02:39:10;6.80;52.10
39655;DHT22;25336;59.944;11.010;2023-04-21T02:41:36;6.70;52.20
39655;DHT22;25336;59.944;11.010;2023-04-21T02:44:01;6.70;52.20
39655;DHT22;25336;59.944;11.010;2023-04-21T02:46:27;6.70;52.20
39655;DHT22;25336;59.944;11.010;2023-04-21T02:48:53;6.60;52.20
39655;DHT22;25336;59.944;11.010;2023-04-21T02:51:18;7.70;52.80
39655;DHT22;25336;59.944;11.010;2023-04-21T02:53:44;7.00;52.50
39655;DHT22;25336;59.944;11.010;2023-04-21T02:56:10;7.10;52.50
39655;DHT22;25336;59.944;11.010;2023-04-21T02:58:36;6.60;52.40
39655;DHT22;25336;59.944;11.010;2023-04-21T03:01:03;6.50;52.30
39655;DHT22;25336;59.944;11.010;2023-04-21T03:03:29;6.50;52.30
39655;DHT22;25336;59.944;11.010;2023-04-21T03:06:00;6.50;52.40
39655;DHT22;25336;59.944;11.010;2023-04-21T03:08:26;6.90;52.80
39655;DHT22;25336;59.944;11.010;2023-04-21T03:10:52;6.40;52.40
39655;DHT22;25336;59.944;11.010;2023-04-21T03:13:18;6.40;52.50
39655;DHT22;25336;59.944;11.010;2023-04-21T03:15:43;6.30;52.50
39655;DHT22;25336;59.944;11.010;2023-04-21T03:18:11;6.30;52.60
39655;DHT22;25336;59.944;11.010;2023-04-21T03:20:37;6.90;52.90
39655;DHT22;25336;59.944;11.010;2023-04-21T03:23:03;7.00;52.90
39655;DHT22;25336;59.944;11.010;2023-04-21T03:25:28;6.20;52.60
39655;DHT22;25336;59.944;11.010;2023-04-21T03:27:54;6.10;52.70
39655;DHT22;25336;59.944;11.010;2023-04-21T03:30:21;6.40;53.00
39655;DHT22;25336;59.944;11.010;2023-04-21T03:32:47;6.00;52.90
39655;DHT22;25336;59.944;11.010;2023-04-21T03:35:12;6.60;53.10
39655;DHT22;25336;59.944;11.010;2023-04-21T03:37:38;6.00;53.00
39655;DHT22;25336;59.944;11.010;2023-04-21T03:40:04;5.90;53.60
39655;DHT22;25336;59.944;11.010;2023-04-21T03:42:31;5.80;53.00
39655;DHT22;25336;59.944;11.010;2023-04-21T03:45:01;6.40;53.40
39655;DHT22;25336;59.944;11.010;2023-04-21T03:47:27;5.80;53.60
39655;DHT22;25336;59.944;11.010;2023-04-21T03:49:53;6.80;53.90
39655;DHT22;25336;59.944;11.010;2023-04-21T03:52:18;6.30;53.70
39655;DHT22;25336;59.944;11.010;2023-04-21T03:54:44;5.70;53.50
39655;DHT22;25336;59.944;11.010;2023-04-21T03:57:10;5.60;53.60
39655;DHT22;25336;59.944;11.010;2023-04-21T03:59:35;5.60;53.60
39655;DHT22;25336;59.944;11.010;2023-04-21T04:02:01;6.70;54.20
39655;DHT22;25336;59.944;11.010;2023-04-21T04:04:26;5.60;53.70
39655;DHT22;25336;59.944;11.010;2023-04-21T04:06:52;5.50;53.80
39655;DHT22;25336;59.944;11.010;2023-04-21T04:09:17;5.50;53.80
39655;DHT22;25336;59.944;11.010;2023-04-21T04:11:43;5.40;53.70
39655;DHT22;25336;59.944;11.010;2023-04-21T04:14:09;6.30;54.20
39655;DHT22;25336;59.944;11.010;2023-04-21T04:16:34;5.40;54.00
39655;DHT22;25336;59.944;11.010;2023-04-21T04:19:00;5.40;54.60
39655;DHT22;25336;59.944;11.010;2023-04-21T04:21:26;5.30;54.20
39655;DHT22;25336;59.944;11.010;2023-04-21T04:23:52;5.30;54.20
39655;DHT22;25336;59.944;11.010;2023-04-21T04:26:18;5.00;54.10
39655;DHT22;25336;59.944;11.010;2023-04-21T04:28:46;6.00;54.80
39655;DHT22;25336;59.944;11.010;2023-04-21T04:31:12;5.20;54.50
39655;DHT22;25336;59.944;11.010;2023-04-21T04:33:45;5.20;54.60
39655;DHT22;25336;59.944;11.010;2023-04-21T04:36:10;5.80;54.90
39655;DHT22;25336;59.944;11.010;2023-04-21T04:38:37;5.20;54.60
39655;DHT22;25336;59.944;11.010;2023-04-21T04:41:03;5.40;54.90
39655;DHT22;25336;59.944;11.010;2023-04-21T04:43:29;5.20;54.90
39655;DHT22;25336;59.944;11.010;2023-04-21T04:45:58;5.20;55.00
39655;DHT22;25336;59.944;11.010;2023-04-21T04:48:24;6.00;55.50
39655;DHT22;25336;59.944;11.010;2023-04-21T04:50:50;6.30;55.70
39655;DHT22;25336;59.944;11.010;2023-04-21T04:53:16;5.20;54.90
39655;DHT22;25336;59.944;11.010;2023-04-21T04:55:42;5.20;55.20
39655;DHT22;25336;59.944;11.010;2023-04-21T04:58:07;5.20;55.30
39655;DHT22;25336;59.944;11.010;2023-04-21T05:00:33;5.90;55.80
39655;DHT22;25336;59.944;11.010;2023-04-21T05:02:59;5.20;55.60
39655;DHT22;25336;59.944;11.010;2023-04-21T05:05:24;5.20;55.70
39655;DHT22;25336;59.944;11.010;2023-04-21T05:07:50;5.30;55.90
39655;DHT22;25336;59.944;11.010;2023-04-21T05:10:16;5.30;56.10
39655;DHT22;25336;59.944;11.010;2023-04-21T05:12:47;5.30;56.00
39655;DHT22;25336;59.944;11.010;2023-04-21T05:15:13;5.40;56.40
39655;DHT22;25336;59.944;11.010;2023-04-21T05:17:39;5.40;56.20
39655;DHT22;25336;59.944;11.010;2023-04-21T05:20:05;5.40;56.30
39655;DHT22;25336;59.944;11.010;2023-04-21T05:22:35;5.60;56.30
39655;DHT22;25336;59.944;11.010;2023-04-21T05:25:01;5.60;56.30
39655;DHT22;25336;59.944;11.010;2023-04-21T05:27:33;5.60;56.20
39655;DHT22;25336;59.944;11.010;2023-04-21T05:29:59;5.70;56.40
39655;DHT22;25336;59.944;11.010;2023-04-21T05:32:25;5.80;56.80
39655;DHT22;25336;59.944;11.010;2023-04-21T05:34:50;5.80;55.70
39655;DHT22;25336;59.944;11.010;2023-04-21T05:37:16;5.90;56.00
39655;DHT22;25336;59.944;11.010;2023-04-21T05:39:42;6.50;56.40
39655;DHT22;25336;59.944;11.010;2023-04-21T05:42:11;6.10;56.30
39655;DHT22;25336;59.944;11.010;2023-04-21T05:44:37;7.30;57.00
39655;DHT22;25336;59.944;11.010;2023-04-21T05:47:04;6.60;56.50
39655;DHT22;25336;59.944;11.010;2023-04-21T05:49:30;6.30;56.40
39655;DHT22;25336;59.944;11.010;2023-04-21T05:51:56;5.70;55.90
39655;DHT22;25336;59.944;11.010;2023-04-21T05:54:21;6.70;56.40
39655;DHT22;25336;59.944;11.010;2023-04-21T05:56:47;6.80;56.40
39655;DHT22;25336;59.944;11.010;2023-04-21T05:59:13;6.70;56.20
39655;DHT22;25336;59.944;11.010;2023-04-21T06:01:38;8.00;56.70
39655;DHT22;25336;59.944;11.010;2023-04-21T06:04:05;6.90;56.00
39655;DHT22;25336;59.944;11.010;2023-04-21T06:06:31;7.50;56.20
39655;DHT22;25336;59.944;11.010;2023-04-21T06:08:56;7.10;55.90
39655;DHT22;25336;59.944;11.010;2023-04-21T06:11:22;7.80;56.10
39655;DHT22;25336;59.944;11.010;2023-04-21T06:13:49;7.30;55.70
39655;DHT22;25336;59.944;11.010;2023-04-21T06:16:14;8.50;56.20
39655;DHT22;25336;59.944;11.010;2023-04-21T06:18:40;7.50;55.60
39655;DHT22;25336;59.944;11.010;2023-04-21T06:21:06;7.80;55.70
39655;DHT22;25336;59.944;11.010;2023-04-21T06:23:31;8.30;55.80
39655;DHT22;25336;59.944;11.010;2023-04-21T06:26:02;7.70;55.40
39655;DHT22;25336;59.944;11.010;2023-04-21T06:28:30;7.80;55.50
39655;DHT22;25336;59.944;11.010;2023-04-21T06:30:56;7.90;55.20
39655;DHT22;25336;59.944;11.010;2023-04-21T06:33:22;8.00;55.10
39655;DHT22;25336;59.944;11.010;2023-04-21T06:35:48;8.10;55.30
39655;DHT22;25336;59.944;11.010;2023-04-21T06:38:13;7.80;54.90
39655;DHT22;25336;59.944;11.010;2023-04-21T06:40:39;8.30;55.10
39655;DHT22;25336;59.944;11.010;2023-04-21T06:43:05;8.40;54.90
39655;DHT22;25336;59.944;11.010;2023-04-21T06:45:31;8.50;54.90
39655;DHT22;25336;59.944;11.010;2023-04-21T06:48:02;9.40;55.10
39655;DHT22;25336;59.944;11.010;2023-04-21T06:50:28;8.70;54.80
39655;DHT22;25336;59.944;11.010;2023-04-21T06:52:54;9.60;54.90
39655;DHT22;25336;59.944;11.010;2023-04-21T06:55:19;8.90;54.70
39655;DHT22;25336;59.944;11.010;2023-04-21T06:57:45;9.00;54.40
39655;DHT22;25336;59.944;11.010;2023-04-21T07:00:11;9.10;54.30
39655;DHT22;25336;59.944;11.010;2023-04-21T07:02:38;9.20;54.30
39655;DHT22;25336;59.944;11.010;2023-04-21T07:05:04;9.30;54.30
39655;DHT22;25336;59.944;11.010;2023-04-21T07:07:29;9.40;54.10
39655;DHT22;25336;59.944;11.010;2023-04-21T07:09:55;9.50;53.90
39655;DHT22;25336;59.944;11.010;2023-04-21T07:12:22;9.60;53.80
39655;DHT22;25336;59.944;11.010;2023-04-21T07:14:47;9.70;53.70
39655;DHT22;25336;59.944;11.010;2023-04-21T07:17:14;9.80;53.60
39655;DHT22;25336;59.944;11.010;2023-04-21T07:19:40;9.90;53.60
39655;DHT22;25336;59.944;11.010;2023-04-21T07:22:05;10.00;53.40
39655;DHT22;25336;59.944;11.010;2023-04-21T07:24:31;10.10;53.40
39655;DHT22;25336;59.944;11.010;2023-04-21T07:26:58;10.20;53.30
39655;DHT22;25336;59.944;11.010;2023-04-21T07:29:24;10.30;53.00
39655;DHT22;25336;59.944;11.010;2023-04-21T07:31:50;10.40;52.80
39655;DHT22;25336;59.944;11.010;2023-04-21T07:34:16;10.40;52.60
39655;DHT22;25336;59.944;11.010;2023-04-21T07:36:41;10.50;52.60
39655;DHT22;25336;59.944;11.010;2023-04-21T07:39:07;10.70;52.80
39655;DHT22;25336;59.944;11.010;2023-04-21T07:41:33;10.70;52.70
39655;DHT22;25336;59.944;11.010;2023-04-21T07:43:58;10.80;52.50
39655;DHT22;25336;59.944;11.010;2023-04-21T07:46:24;11.00;52.50
39655;DHT22;25336;59.944;11.010;2023-04-21T07:48:55;11.10;52.30
39655;DHT22;25336;59.944;11.010;2023-04-21T07:51:22;11.20;52.20
39655;DHT22;25336;59.944;11.010;2023-04-21T07:53:48;11.30;52.10
39655;DHT22;25336;59.944;11.010;2023-04-21T07:56:13;11.40;52.70
39655;DHT22;25336;59.944;11.010;2023-04-21T07:58:40;11.50;52.00
39655;DHT22;25336;59.944;11.010;2023-04-21T08:01:06;11.60;51.80
39655;DHT22;25336;59.944;11.010;2023-04-21T08:03:31;11.80;51.70
39655;DHT22;25336;59.944;11.010;2023-04-21T08:05:57;11.80;51.40
39655;DHT22;25336;59.944;11.010;2023-04-21T08:08:23;12.00;51.30
39655;DHT22;25336;59.944;11.010;2023-04-21T08:10:48;12.10;51.10
39655;DHT22;25336;59.944;11.010;2023-04-21T08:13:14;12.20;50.80
39655;DHT22;25336;59.944;11.010;2023-04-21T08:15:40;12.60;50.70
39655;DHT22;25336;59.944;11.010;2023-04-21T08:18:06;12.50;50.50
39655;DHT22;25336;59.944;11.010;2023-04-21T08:20:32;12.60;50.00
39655;DHT22;25336;59.944;11.010;2023-04-21T08:22:58;12.70;50.00
39655;DHT22;25336;59.944;11.010;2023-04-21T08:25:23;12.80;49.60
39655;DHT22;25336;59.944;11.010;2023-04-21T08:27:49;12.90;49.50
39655;DHT22;25336;59.944;11.010;2023-04-21T08:30:16;13.00;49.20
39655;DHT22;25336;59.944;11.010;2023-04-21T08:32:41;13.20;49.00
39655;DHT22;25336;59.944;11.010;2023-04-21T08:35:07;13.30;49.00
39655;DHT22;25336;59.944;11.010;2023-04-21T08:37:36;13.40;48.00
39655;DHT22;25336;59.944;11.010;2023-04-21T08:40:03;13.50;48.30
39655;DHT22;25336;59.944;11.010;2023-04-21T08:42:29;13.60;48.10
39655;DHT22;25336;59.944;11.010;2023-04-21T08:44:54;13.70;48.00
39655;DHT22;25336;59.944;11.010;2023-04-21T08:47:21;13.80;47.70
39655;DHT22;25336;59.944;11.010;2023-04-21T08:49:50;13.90;47.30
39655;DHT22;25336;59.944;11.010;2023-04-21T08:52:17;14.00;47.20
39655;DHT22;25336;59.944;11.010;2023-04-21T08:54:42;14.10;47.20
39655;DHT22;25336;59.944;11.010;2023-04-21T08:57:08;14.20;46.80
39655;DHT22;25336;59.944;11.010;2023-04-21T08:59:34;14.30;46.80
39655;DHT22;25336;59.944;11.010;2023-04-21T09:02:14;14.40;46.80
39655;DHT22;25336;59.944;11.010;2023-04-21T09:04:42;14.50;46.20
39655;DHT22;25336;59.944;11.010;2023-04-21T09:07:09;14.60;45.90
39655;DHT22;25336;59.944;11.010;2023-04-21T09:09:54;14.70;45.80
39655;DHT22;25336;59.944;11.010;2023-04-21T09:12:20;14.80;45.50
39655;DHT22;25336;59.944;11.010;2023-04-21T09:14:46;14.80;45.50
39655;DHT22;25336;59.944;11.010;2023-04-21T09:17:15;15.00;45.50
39655;DHT22;25336;59.944;11.010;2023-04-21T09:19:40;15.00;45.30
39655;DHT22;25336;59.944;11.010;2023-04-21T09:22:06;15.10;44.90
39655;DHT22;25336;59.944;11.010;2023-04-21T09:24:32;15.10;44.70
39655;DHT22;25336;59.944;11.010;2023-04-21T09:26:57;15.30;44.80
39655;DHT22;25336;59.944;11.010;2023-04-21T09:29:24;15.30;44.60
39655;DHT22;25336;59.944;11.010;2023-04-21T09:31:51;15.40;44.40
39655;DHT22;25336;59.944;11.010;2023-04-21T09:34:24;15.50;44.50
39655;DHT22;25336;59.944;11.010;2023-04-21T09:37:16;15.60;44.50
39655;DHT22;25336;59.944;11.010;2023-04-21T09:39:45;15.70;44.00
39655;DHT22;25336;59.944;11.010;2023-04-21T09:42:11;15.80;44.00
39655;DHT22;25336;59.944;11.010;2023-04-21T09:44:37;16.10;43.60
39655;DHT22;25336;59.944;11.010;2023-04-21T09:47:03;16.00;43.70
39655;DHT22;25336;59.944;11.010;2023-04-21T09:49:32;16.10;43.30
39655;DHT22;25336;59.944;11.010;2023-04-21T09:52:00;16.20;43.20
39655;DHT22;25336;59.944;11.010;2023-04-21T09:54:33;16.20;43.10
39655;DHT22;25336;59.944;11.010;2023-04-21T09:57:00;16.30;42.40
39655;DHT22;25336;59.944;11.010;2023-04-21T09:59:33;17.30;42.80
39655;DHT22;25336;59.944;11.010;2023-04-21T10:01:59;16.50;42.20
39655;DHT22;25336;59.944;11.010;2023-04-21T10:04:26;17.50;42.90
39655;DHT22;25336;59.944;11.010;2023-04-21T10:06:52;17.30;42.60
39655;DHT22;25336;59.944;11.010;2023-04-21T10:09:21;16.70;42.30
39655;DHT22;25336;59.944;11.010;2023-04-21T10:11:48;16.70;42.20
39655;DHT22;25336;59.944;11.010;2023-04-21T10:14:14;16.80;42.20
39655;DHT22;25336;59.944;11.010;2023-04-21T10:16:41;17.80;42.20
39655;DHT22;25336;59.944;11.010;2023-04-21T10:19:24;16.90;41.60
39655;DHT22;25336;59.944;11.010;2023-04-21T10:21:50;17.00;41.10
39655;DHT22;25336;59.944;11.010;2023-04-21T10:24:15;17.90;41.70
39655;DHT22;25336;59.944;11.010;2023-04-21T10:26:41;17.20;41.20
39655;DHT22;25336;59.944;11.010;2023-04-21T10:29:07;17.30;41.20
39655;DHT22;25336;59.944;11.010;2023-04-21T10:39:11;17.60;39.90
39655;DHT22;25336;59.944;11.010;2023-04-21T10:41:49;17.70;40.10
39655;DHT22;25336;59.944;11.010;2023-04-21T10:44:15;17.70;39.90
39655;DHT22;25336;59.944;11.010;2023-04-21T10:46:46;17.80;39.40
39655;DHT22;25336;59.944;11.010;2023-04-21T10:49:22;17.80;39.10
39655;DHT22;25336;59.944;11.010;2023-04-21T10:54:28;18.00;38.50
39655;DHT22;25336;59.944;11.010;2023-04-21T10:56:56;18.90;39.10
39655;DHT22;25336;59.944;11.010;2023-04-21T10:59:22;18.10;39.00
39655;DHT22;25336;59.944;11.010;2023-04-21T11:01:48;18.20;38.90
39655;DHT22;25336;59.944;11.010;2023-04-21T11:04:18;18.20;38.20
39655;DHT22;25336;59.944;11.010;2023-04-21T11:07:09;18.30;38.10
39655;DHT22;25336;59.944;11.010;2023-04-21T11:09:36;18.40;37.80
39655;DHT22;25336;59.944;11.010;2023-04-21T11:12:04;18.40;37.90
39655;DHT22;25336;59.944;11.010;2023-04-21T11:14:32;18.50;38.00
39655;DHT22;25336;59.944;11.010;2023-04-21T11:17:00;18.50;38.10
39655;DHT22;25336;59.944;11.010;2023-04-21T11:19:26;18.60;37.80
39655;DHT22;25336;59.944;11.010;2023-04-21T11:21:54;18.70;37.80
39655;DHT22;25336;59.944;11.010;2023-04-21T11:24:20;18.80;37.50
39655;DHT22;25336;59.944;11.010;2023-04-21T11:26:46;18.80;36.20
39655;DHT22;25336;59.944;11.010;2023-04-21T11:29:12;18.90;36.40
39655;DHT22;25336;59.944;11.010;2023-04-21T11:31:41;18.90;36.10
39655;DHT22;25336;59.944;11.010;2023-04-21T11:34:07;18.20;36.10
39655;DHT22;25336;59.944;11.010;2023-04-21T11:36:38;19.00;36.60
39655;DHT22;25336;59.944;11.010;2023-04-21T11:39:12;19.10;36.50
39655;DHT22;25336;59.944;11.010;2023-04-21T11:41:42;19.10;35.50
39655;DHT22;25336;59.944;11.010;2023-04-21T11:44:08;19.20;36.10
39655;DHT22;25336;59.944;11.010;2023-04-21T11:46:34;19.20;35.80
39655;DHT22;25336;59.944;11.010;2023-04-21T11:49:05;19.40;35.90
39655;DHT22;25336;59.944;11.010;2023-04-21T11:51:33;19.30;35.80
39655;DHT22;25336;59.944;11.010;2023-04-21T11:53:59;19.30;35.50
39655;DHT22;25336;59.944;11.010;2023-04-21T11:56:25;19.40;35.60
39655;DHT22;25336;59.944;11.010;2023-04-21T11:58:51;19.40;35.60
39655;DHT22;25336;59.944;11.010;2023-04-21T12:01:17;19.70;35.80
39655;DHT22;25336;59.944;11.010;2023-04-21T12:03:56;19.00;34.90
39655;DHT22;25336;59.944;11.010;2023-04-21T12:06:26;19.60;34.20
39655;DHT22;25336;59.944;11.010;2023-04-21T12:09:00;19.60;34.20
39655;DHT22;25336;59.944;11.010;2023-04-21T12:11:28;20.40;34.50
39655;DHT22;25336;59.944;11.010;2023-04-21T12:13:56;19.70;34.10
39655;DHT22;25336;59.944;11.010;2023-04-21T12:16:27;19.70;33.50
39655;DHT22;25336;59.944;11.010;2023-04-21T12:18:53;19.80;33.90
39655;DHT22;25336;59.944;11.010;2023-04-21T12:21:19;19.80;33.80
39655;DHT22;25336;59.944;11.010;2023-04-21T12:23:45;19.80;33.30
39655;DHT22;25336;59.944;11.010;2023-04-21T12:26:11;19.80;32.80
39655;DHT22;25336;59.944;11.010;2023-04-21T12:28:37;19.80;33.60
39655;DHT22;25336;59.944;11.010;2023-04-21T12:31:04;19.90;34.00
39655;DHT22;25336;59.944;11.010;2023-04-21T12:33:30;19.90;34.40
39655;DHT22;25336;59.944;11.010;2023-04-21T12:35:55;19.90;34.40
39655;DHT22;25336;59.944;11.010;2023-04-21T12:38:21;20.00;33.90
39655;DHT22;25336;59.944;11.010;2023-04-21T12:40:47;20.10;34.40
39655;DHT22;25336;59.944;11.010;2023-04-21T12:43:13;20.20;34.10
39655;DHT22;25336;59.944;11.010;2023-04-21T12:45:38;20.30;33.90
39655;DHT22;25336;59.944;11.010;2023-04-21T12:48:04;20.30;33.70
39655;DHT22;25336;59.944;11.010;2023-04-21T12:50:31;20.30;33.10
39655;DHT22;25336;59.944;11.010;2023-04-21T12:52:57;20.40;32.90
39655;DHT22;25336;59.944;11.010;2023-04-21T12:55:23;20.50;33.00
39655;DHT22;25336;59.944;11.010;2023-04-21T12:57:48;20.50;33.00
39655;DHT22;25336;59.944;11.010;2023-04-21T13:00:15;20.50;33.10
39655;DHT22;25336;59.944;11.010;2023-04-21T13:02:41;20.60;32.90
39655;DHT22;25336;59.944;11.010;2023-04-21T13:05:07;20.60;33.00
39655;DHT22;25336;59.944;11.010;2023-04-21T13:07:35;20.70;32.80
39655;DHT22;25336;59.944;11.010;2023-04-21T13:10:01;20.70;32.70
39655;DHT22;25336;59.944;11.010;2023-04-21T13:12:27;20.70;32.30
39655;DHT22;25336;59.944;11.010;2023-04-21T13:14:52;20.80;32.70
39655;DHT22;25336;59.944;11.010;2023-04-21T13:17:18;21.40;33.20
39655;DHT22;25336;59.944;11.010;2023-04-21T13:19:44;20.90;32.80
39655;DHT22;25336;59.944;11.010;2023-04-21T13:22:09;21.60;32.70
39655;DHT22;25336;59.944;11.010;2023-04-21T13:24:35;21.70;32.40
39655;DHT22;25336;59.944;11.010;2023-04-21T13:27:01;21.10;31.50
39655;DHT22;25336;59.944;11.010;2023-04-21T13:29:27;21.10;31.20
39655;DHT22;25336;59.944;11.010;2023-04-21T13:31:59;21.20;31.00
39655;DHT22;25336;59.944;11.010;2023-04-21T13:34:25;21.20;30.10
39655;DHT22;25336;59.944;11.010;2023-04-21T13:36:50;21.20;30.50
39655;DHT22;25336;59.944;11.010;2023-04-21T13:39:16;21.20;30.90
39655;DHT22;25336;59.944;11.010;2023-04-21T13:41:42;21.30;31.30
39655;DHT22;25336;59.944;11.010;2023-04-21T13:44:07;21.30;31.10
39655;DHT22;25336;59.944;11.010;2023-04-21T13:46:33;21.30;30.10
39655;DHT22;25336;59.944;11.010;2023-04-21T13:48:58;21.30;30.60
39655;DHT22;25336;59.944;11.010;2023-04-21T13:51:24;21.30;30.60
39655;DHT22;25336;59.944;11.010;2023-04-21T13:53:50;21.30;30.80
39655;DHT22;25336;59.944;11.010;2023-04-21T13:56:15;21.40;30.70
39655;DHT22;25336;59.944;11.010;2023-04-21T13:58:41;21.40;29.90
39655;DHT22;25336;59.944;11.010;2023-04-21T14:01:07;21.40;29.30
39655;DHT22;25336;59.944;11.010;2023-04-21T14:03:33;21.40;28.80
39655;DHT22;25336;59.944;11.010;2023-04-21T14:05:59;21.50;29.00
39655;DHT22;25336;59.944;11.010;2023-04-21T14:08:25;21.50;28.50
39655;DHT22;25336;59.944;11.010;2023-04-21T14:10:50;21.50;28.10
39655;DHT22;25336;59.944;11.010;2023-04-21T14:13:16;22.20;28.40
39655;DHT22;25336;59.944;11.010;2023-04-21T14:15:42;21.50;28.20
39655;DHT22;25336;59.944;11.010;2023-04-21T14:18:08;21.50;28.00
39655;DHT22;25336;59.944;11.010;2023-04-21T14:20:34;21.60;28.00
39655;DHT22;25336;59.944;11.010;2023-04-21T14:22:59;21.60;27.90
39655;DHT22;25336;59.944;11.010;2023-04-21T14:25:25;21.60;27.80
39655;DHT22;25336;59.944;11.010;2023-04-21T14:27:51;21.60;28.00
39655;DHT22;25336;59.944;11.010;2023-04-21T14:30:16;21.60;27.50
39655;DHT22;25336;59.944;11.010;2023-04-21T14:32:42;21.60;27.50
39655;DHT22;25336;59.944;11.010;2023-04-21T14:35:11;21.60;27.50
39655;DHT22;25336;59.944;11.010;2023-04-21T14:37:37;21.80;27.50
39655;DHT22;25336;59.944;11.010;2023-04-21T14:40:05;21.70;27.30
39655;DHT22;25336;59.944;11.010;2023-04-21T14:42:31;21.70;27.00
39655;DHT22;25336;59.944;11.010;2023-04-21T14:44:57;21.70;27.10
39655;DHT22;25336;59.944;11.010;2023-04-21T14:47:23;21.70;27.10
39655;DHT22;25336;59.944;11.010;2023-04-21T14:49:48;21.70;27.10
39655;DHT22;25336;59.944;11.010;2023-04-21T14:52:17;21.70;26.90
39655;DHT22;25336;59.944;11.010;2023-04-21T14:54:43;21.70;26.50
39655;DHT22;25336;59.944;11.010;2023-04-21T14:57:09;21.70;26.60
39655;DHT22;25336;59.944;11.010;2023-04-21T14:59:35;21.70;26.60
39655;DHT22;25336;59.944;11.010;2023-04-21T15:02:01;21.70;26.10
39655;DHT22;25336;59.944;11.010;2023-04-21T15:04:27;21.70;26.00
39655;DHT22;25336;59.944;11.010;2023-04-21T15:06:53;21.70;25.90
39655;DHT22;25336;59.944;11.010;2023-04-21T15:09:18;21.70;25.80
39655;DHT22;25336;59.944;11.010;2023-04-21T15:11:44;21.60;25.70
39655;DHT22;25336;59.944;11.010;2023-04-21T15:14:10;21.70;25.80
39655;DHT22;25336;59.944;11.010;2023-04-21T15:16:36;21.70;26.50
39655;DHT22;25336;59.944;11.010;2023-04-21T15:19:02;21.70;26.30
39655;DHT22;25336;59.944;11.010;2023-04-21T15:21:28;21.70;26.20
39655;DHT22;25336;59.944;11.010;2023-04-21T15:23:54;21.70;25.90
39655;DHT22;25336;59.944;11.010;2023-04-21T15:26:19;21.70;26.30
39655;DHT22;25336;59.944;11.010;2023-04-21T15:28:45;21.70;26.30